Airfield :
LOGIN :

Register | Disclaimer

   EN    FR    IT 

 










Legend :    VFR   Marginal VFR   IFR   Intensive IFR   Very Intensive IFR
Visi :
Ceiling :
>= 8 km
>= 3000ft
5 to 8 km
1000 to 3000 ft
1500m to 5 km
500 to 1000 ft
800 to 1500m
200 to 500 ft
< 800m
< 200 ft
Symbols :   Thunderstorms  Fog  Heavy snow  Heavy precipitations  Wind > 20 kt
SIGMETs :     Misc.  Thunderstorms  Icing  Turbulence  Mountain Waves  Volcanic Ashes







- Airport Elevation : 16 ft
- IATA code : SDR


LEXJ - Santander Cantabria

CURRENT METAR :
  • 290700Z 27010KT 9999 FEW035 BKN065 16/09 Q1010

EXPIRED METARs :
  • 290630Z 28015KT 9999 FEW035 BKN065 16/10 Q1010
  • 290600Z 28014G26KT 250V320 9999 FEW035 BKN070 17/09 Q1010
  • 290530Z 26008KT 230V290 9999 FEW020 BKN070 16/10 Q1010
  • 290500Z 28013KT 9999 FEW020 BKN070 16/10 Q1010
  • 290430Z 27014KT 240V300 9999 FEW020 BKN070 16/10 Q1010

TAF TAF LEXJ
Valid from the 29 at 03:00 until the 30 at 03:00 UTC


290200Z 2903/3003 27015KT 9999 SCT030 TX19/2913Z TN14/2904Z
PROB40
TEMPO 2903/2924 3000 RA SHRA SCT030TCU
TEMPO 2907/2921 28020G35KT
PROB30
TEMPO 2912/2918 3000 TSRA BKN025CB
TEMPO 3000/3003 3000 RA BKN010
No reported NOTAMs for that airfield.



MET'MAP, your aeronautical weather chart ! - Copyright ORBIFLY December 2007 - Disclaimer

ORBIFLY MET'MAP TEAM :

Programming & Development : Alexandra Zaïnal
Concept & Development : Baudouin d'Aumeries
Co-Development & Prog : Marc-Olivier Méhu
Technical & hardware support : Manuel Goepfert

Contact : metmap@orbifly.com




SOURCES & CREDITS :

   NOAA